Time;durP1;ratioP1;P1;durP2;ratioP2;P2;SDS_P1;SDS_P2;PMS_P1;PMS_P2;Temp;Humidity;BMP_temperature;BMP_pressure;BME280_temperature;BME280_humidity;BME280_pressure;Samples;Min_cycle;Max_cycle;Signal;HPM_P1;HPM_P2
2022/01/05 00:01:20;;;;;;;2.00;1.63;;;;;;;;;;6379898;28;20190;-83
2022/01/05 00:04:26;;;;;;;4.57;1.40;;;;;;;;;;6379857;28;20191;-83
2022/01/05 00:07:31;;;;;;;2.53;1.50;;;;;;;;;;6374221;28;20199;-83
2022/01/05 00:10:35;;;;;;;4.83;1.50;;;;;;;;;;6376799;28;20247;-83
2022/01/05 00:13:39;;;;;;;4.60;1.43;;;;;;;;;;6350164;28;20213;-83
2022/01/05 00:16:43;;;;;;;4.00;1.43;;;;;;;;;;6366540;28;20465;-83
2022/01/05 00:19:49;;;;;;;10.53;1.60;;;;;;;;;;6366150;28;20182;-84
2022/01/05 00:22:53;;;;;;;1.40;1.40;;;;;;;;;;6366887;28;20227;-84
2022/01/05 00:25:59;;;;;;;4.13;1.70;;;;;;;;;;6365443;28;20186;-83
2022/01/05 00:29:04;;;;;;;5.87;1.53;;;;;;;;;;6367758;28;20182;-84
2022/01/05 00:32:09;;;;;;;8.07;1.57;;;;;;;;;;6382599;27;20230;-84
2022/01/05 00:35:15;;;;;;;8.77;1.60;;;;;;;;;;6367295;28;20189;-83
2022/01/05 00:38:20;;;;;;;1.50;1.40;;;;;;;;;;6367501;28;20189;-84
2022/01/05 00:41:24;;;;;;;8.67;1.50;;;;;;;;;;6367672;28;20194;-83
2022/01/05 00:44:28;;;;;;;4.00;1.53;;;;;;;;;;6367122;28;20224;-83
2022/01/05 00:47:33;;;;;;;2.50;1.73;;;;;;;;;;6366296;28;20226;-83
2022/01/05 00:50:38;;;;;;;2.67;1.80;;;;;;;;;;6367661;28;20504;-84
2022/01/05 00:53:43;;;;;;;5.00;1.70;;;;;;;;;;6370253;28;20206;-84
2022/01/05 00:56:47;;;;;;;1.87;1.30;;;;;;;;;;6392387;27;20203;-84
2022/01/05 00:59:51;;;;;;;4.27;1.63;;;;;;;;;;6375701;28;20214;-83
2022/01/05 01:02:55;;;;;;;2.10;1.97;;;;;;;;;;6376112;28;20201;-84
2022/01/05 01:06:01;;;;;;;7.27;1.70;;;;;;;;;;6374734;28;20278;-84
2022/01/05 01:09:06;;;;;;;5.60;1.67;;;;;;;;;;6375891;28;20204;-84
2022/01/05 01:12:12;;;;;;;3.13;1.70;;;;;;;;;;6375266;28;20237;-84
2022/01/05 01:15:17;;;;;;;1.73;1.63;;;;;;;;;;6357223;28;20385;-84
2022/01/05 01:18:22;;;;;;;4.57;2.00;;;;;;;;;;6357814;28;20183;-83
2022/01/05 01:21:28;;;;;;;5.30;1.53;;;;;;;;;;6373373;28;20203;-84
2022/01/05 01:24:32;;;;;;;3.00;1.70;;;;;;;;;;6374654;28;20213;-84
2022/01/05 01:27:37;;;;;;;1.60;1.50;;;;;;;;;;6374628;28;20182;-84
2022/01/05 01:30:41;;;;;;;6.67;1.73;;;;;;;;;;6373839;28;20358;-84
2022/01/05 01:33:46;;;;;;;1.90;1.50;;;;;;;;;;6355190;28;20395;-83
2022/01/05 01:36:51;;;;;;;3.07;1.40;;;;;;;;;;6375513;28;20381;-83
2022/01/05 01:39:55;;;;;;;6.43;2.13;;;;;;;;;;6375995;28;20186;-83
2022/01/05 01:43:00;;;;;;;8.93;2.00;;;;;;;;;;6392516;27;20205;-83
2022/01/05 01:46:05;;;;;;;3.73;1.50;;;;;;;;;;6376632;28;20182;-83
2022/01/05 01:49:09;;;;;;;2.40;1.60;;;;;;;;;;6376098;28;20288;-83
2022/01/05 01:52:15;;;;;;;4.20;1.50;;;;;;;;;;6377559;28;20210;-83
2022/01/05 01:55:20;;;;;;;3.47;1.53;;;;;;;;;;6356161;28;20199;-84
2022/01/05 01:58:27;;;;;;;11.50;1.77;;;;;;;;;;6374463;28;20183;-84
2022/01/05 02:01:31;;;;;;;1.87;1.77;;;;;;;;;;6375035;28;20223;-84
2022/01/05 02:04:39;;;;;;;9.23;1.47;;;;;;;;;;6374331;28;20189;-84
2022/01/05 02:07:44;;;;;;;2.40;1.50;;;;;;;;;;6370108;28;20199;-83
2022/01/05 02:10:49;;;;;;;4.70;1.57;;;;;;;;;;6352048;28;20231;-84
2022/01/05 02:13:53;;;;;;;9.73;1.73;;;;;;;;;;6371002;28;20298;-84
2022/01/05 02:17:02;;;;;;;2.87;1.60;;;;;;;;;;6370054;28;20182;-84
2022/01/05 02:20:13;;;;;;;7.77;1.67;;;;;;;;;;6369316;28;20269;-84
2022/01/05 02:23:18;;;;;;;3.23;1.83;;;;;;;;;;6369116;28;20257;-84
2022/01/05 02:26:22;;;;;;;1.67;1.37;;;;;;;;;;6368937;28;20237;-84
2022/01/05 02:29:27;;;;;;;4.00;1.90;;;;;;;;;;6369310;28;20190;-84
2022/01/05 02:32:31;;;;;;;1.73;1.50;;;;;;;;;;6367844;28;20212;-84
2022/01/05 02:35:35;;;;;;;2.37;1.43;;;;;;;;;;6368927;28;20190;-84
2022/01/05 02:38:41;;;;;;;7.13;1.50;;;;;;;;;;6369334;28;20187;-84
2022/01/05 02:41:45;;;;;;;2.73;1.77;;;;;;;;;;6369246;28;20200;-84
2022/01/05 02:44:49;;;;;;;6.30;1.70;;;;;;;;;;6369188;28;20217;-84
2022/01/05 02:47:55;;;;;;;6.43;1.73;;;;;;;;;;6368280;28;20226;-84
2022/01/05 02:51:00;;;;;;;5.70;1.60;;;;;;;;;;6350624;28;20187;-84
2022/01/05 02:54:06;;;;;;;3.40;1.43;;;;;;;;;;6369113;28;20292;-84
2022/01/05 02:57:11;;;;;;;7.37;1.70;;;;;;;;;;6369253;28;20184;-84
2022/01/05 03:00:17;;;;;;;1.60;1.60;;;;;;;;;;6350182;28;20199;-84
2022/01/05 03:03:21;;;;;;;5.13;2.07;;;;;;;;;;6368696;28;20215;-84
2022/01/05 03:06:27;;;;;;;1.57;1.40;;;;;;;;;;6368867;28;20183;-84
2022/01/05 03:09:32;;;;;;;2.33;1.70;;;;;;;;;;6383621;27;20200;-84
2022/01/05 03:12:37;;;;;;;5.63;1.73;;;;;;;;;;6368680;28;20455;-84
2022/01/05 03:15:41;;;;;;;6.47;1.43;;;;;;;;;;6368706;28;20222;-84
2022/01/05 03:18:46;;;;;;;9.27;1.43;;;;;;;;;;6366217;28;20259;-83
2022/01/05 03:21:50;;;;;;;3.00;1.40;;;;;;;;;;6369475;28;20185;-83
2022/01/05 03:24:56;;;;;;;4.47;1.77;;;;;;;;;;6383619;27;20223;-83
2022/01/05 03:28:00;;;;;;;6.13;1.80;;;;;;;;;;6348278;28;20380;-84
2022/01/05 03:31:09;;;;;;;5.93;1.50;;;;;;;;;;6366949;28;20189;-84
2022/01/05 03:34:18;;;;;;;5.80;1.60;;;;;;;;;;6365757;28;20206;-83
2022/01/05 03:37:22;;;;;;;3.97;1.40;;;;;;;;;;6367265;28;20193;-84
2022/01/05 03:40:28;;;;;;;2.83;1.77;;;;;;;;;;6366331;28;20382;-85
2022/01/05 03:43:32;;;;;;;5.90;2.20;;;;;;;;;;6367604;28;20225;-84
2022/01/05 03:46:36;;;;;;;5.50;1.50;;;;;;;;;;6349002;28;20236;-84
2022/01/05 03:49:40;;;;;;;7.23;1.90;;;;;;;;;;6366845;28;20420;-84
2022/01/05 03:52:44;;;;;;;1.57;1.57;;;;;;;;;;6367483;28;20217;-84
2022/01/05 03:55:51;;;;;;;2.63;1.60;;;;;;;;;;6382902;27;20256;-84
2022/01/05 03:58:55;;;;;;;3.00;1.60;;;;;;;;;;6368337;28;20191;-84
2022/01/05 04:01:59;;;;;;;2.83;1.50;;;;;;;;;;6368349;28;20189;-84
2022/01/05 04:05:04;;;;;;;3.67;1.80;;;;;;;;;;6368170;28;20187;-84
2022/01/05 04:08:10;;;;;;;2.67;1.57;;;;;;;;;;6367948;28;20206;-84
2022/01/05 04:11:16;;;;;;;2.03;1.50;;;;;;;;;;6367334;28;20189;-84
2022/01/05 04:14:20;;;;;;;5.87;1.47;;;;;;;;;;6366466;28;20207;-84
2022/01/05 04:17:24;;;;;;;6.40;1.60;;;;;;;;;;6366590;28;20444;-84
2022/01/05 04:20:29;;;;;;;1.43;1.43;;;;;;;;;;6365236;28;20471;-84
2022/01/05 04:23:33;;;;;;;5.83;1.70;;;;;;;;;;6366577;28;20186;-84
2022/01/05 04:26:39;;;;;;;5.50;1.70;;;;;;;;;;6366420;28;20238;-84
2022/01/05 04:29:44;;;;;;;3.23;1.70;;;;;;;;;;6365040;28;20284;-84
2022/01/05 04:32:49;;;;;;;3.57;1.30;;;;;;;;;;6365912;28;20183;-85
2022/01/05 04:36:13;;;;;;;3.67;1.90;;;;;;;;;;6365851;28;20211;-84
2022/01/05 04:39:18;;;;;;;2.83;1.40;;;;;;;;;;6365542;28;20374;-84
2022/01/05 04:42:24;;;;;;;3.97;1.70;;;;;;;;;;6365421;28;20473;-84
2022/01/05 04:45:29;;;;;;;5.47;1.40;;;;;;;;;;6366234;28;20187;-84
2022/01/05 04:48:33;;;;;;;4.87;1.37;;;;;;;;;;6347235;28;20236;-84
2022/01/05 04:51:38;;;;;;;2.90;1.40;;;;;;;;;;6365043;28;20183;-85
2022/01/05 04:54:42;;;;;;;1.50;1.50;;;;;;;;;;6366242;28;20281;-84
2022/01/05 04:57:50;;;;;;;3.07;1.33;;;;;;;;;;6366521;28;20188;-85
2022/01/05 05:00:54;;;;;;;2.47;1.53;;;;;;;;;;6365242;28;20212;-85
2022/01/05 05:03:58;;;;;;;3.53;1.47;;;;;;;;;;6367136;28;20189;-83
2022/01/05 05:07:03;;;;;;;3.10;1.67;;;;;;;;;;6365205;28;20216;-83
2022/01/05 05:10:08;;;;;;;4.90;1.60;;;;;;;;;;6366445;28;20185;-83
2022/01/05 05:13:16;;;;;;;6.87;1.70;;;;;;;;;;6365345;28;20196;-83
2022/01/05 05:16:20;;;;;;;2.10;1.27;;;;;;;;;;6365912;28;20211;-83
2022/01/05 05:19:24;;;;;;;6.50;1.73;;;;;;;;;;6365991;28;20184;-83
2022/01/05 05:22:28;;;;;;;2.13;1.43;;;;;;;;;;6366036;28;20185;-83
2022/01/05 05:25:32;;;;;;;1.47;1.40;;;;;;;;;;6365472;28;20473;-83
2022/01/05 05:28:49;;;;;;;3.70;1.87;;;;;;;;;;6364953;28;20262;-83
2022/01/05 05:31:54;;;;;;;2.83;1.50;;;;;;;;;;6366151;28;20185;-83
2022/01/05 05:34:58;;;;;;;1.57;1.57;;;;;;;;;;6348140;28;20218;-83
2022/01/05 05:38:03;;;;;;;5.70;1.70;;;;;;;;;;6366225;28;20183;-83
2022/01/05 05:41:07;;;;;;;4.37;1.70;;;;;;;;;;6367901;28;20237;-83
2022/01/05 05:44:13;;;;;;;1.97;1.53;;;;;;;;;;6370731;28;20194;-83
2022/01/05 05:47:17;;;;;;;2.73;1.50;;;;;;;;;;6368982;28;20489;-83
2022/01/05 05:50:22;;;;;;;5.93;1.90;;;;;;;;;;6369291;28;20570;-83
2022/01/05 05:53:27;;;;;;;2.97;1.67;;;;;;;;;;6370618;28;20185;-83
2022/01/05 05:56:31;;;;;;;2.53;1.80;;;;;;;;;;6371019;28;20208;-83
2022/01/05 05:59:37;;;;;;;6.50;1.50;;;;;;;;;;6369762;28;20382;-83
2022/01/05 06:02:41;;;;;;;1.50;1.50;;;;;;;;;;6370278;28;20192;-83
2022/01/05 06:05:45;;;;;;;1.87;1.77;;;;;;;;;;6369581;28;20188;-83
2022/01/05 06:08:50;;;;;;;3.70;1.77;;;;;;;;;;6370021;28;20210;-83
2022/01/05 06:11:54;;;;;;;2.63;1.50;;;;;;;;;;6370108;28;20182;-83
2022/01/05 06:15:00;;;;;;;3.97;1.97;;;;;;;;;;6370282;28;20243;-83
2022/01/05 06:18:04;;;;;;;3.50;1.63;;;;;;;;;;6370168;28;20184;-83
2022/01/05 06:21:11;;;;;;;5.87;1.57;;;;;;;;;;6370640;28;20190;-83
2022/01/05 06:24:15;;;;;;;2.03;1.70;;;;;;;;;;6368804;28;20209;-83
2022/01/05 06:27:19;;;;;;;7.20;1.70;;;;;;;;;;6351455;28;20206;-83
2022/01/05 06:30:25;;;;;;;4.70;1.97;;;;;;;;;;6369180;28;20500;-83
2022/01/05 06:33:29;;;;;;;4.10;1.70;;;;;;;;;;6369915;28;20190;-83
2022/01/05 06:36:33;;;;;;;5.43;1.60;;;;;;;;;;6369623;28;20253;-83
2022/01/05 06:39:37;;;;;;;3.93;2.20;;;;;;;;;;6371077;28;20221;-84
2022/01/05 06:42:42;;;;;;;1.87;1.30;;;;;;;;;;6369473;28;20190;-84
2022/01/05 06:45:48;;;;;;;2.00;1.90;;;;;;;;;;6368905;28;20188;-84
2022/01/05 06:48:53;;;;;;;2.40;1.67;;;;;;;;;;6351086;28;20315;-84
2022/01/05 06:51:57;;;;;;;4.87;2.03;;;;;;;;;;6351306;28;20200;-84
2022/01/05 06:55:01;;;;;;;9.83;1.60;;;;;;;;;;6370775;28;20208;-84
2022/01/05 06:58:06;;;;;;;3.50;1.63;;;;;;;;;;6368896;28;20247;-84
2022/01/05 07:01:13;;;;;;;4.67;2.57;;;;;;;;;;6370041;28;20219;-84
2022/01/05 07:04:18;;;;;;;3.57;2.17;;;;;;;;;;6369569;28;20385;-84
2022/01/05 07:07:22;;;;;;;2.87;2.63;;;;;;;;;;6364077;28;20256;-84
2022/01/05 07:10:26;;;;;;;2.93;2.30;;;;;;;;;;6366096;28;20182;-84
2022/01/05 07:13:31;;;;;;;4.53;2.37;;;;;;;;;;6372777;28;20185;-84
2022/01/05 07:16:36;;;;;;;2.13;1.83;;;;;;;;;;6371044;28;20244;-84
2022/01/05 07:19:40;;;;;;;8.37;1.73;;;;;;;;;;6387066;27;20224;-84
2022/01/05 07:22:44;;;;;;;1.90;1.70;;;;;;;;;;6372413;28;20192;-84
2022/01/05 07:25:48;;;;;;;5.93;1.93;;;;;;;;;;6371718;28;20430;-85
2022/01/05 07:28:53;;;;;;;2.67;1.40;;;;;;;;;;6378522;28;20186;-83
2022/01/05 07:31:58;;;;;;;2.13;2.00;;;;;;;;;;6363831;28;20196;-83
2022/01/05 07:35:02;;;;;;;5.37;1.50;;;;;;;;;;6381535;28;20185;-82
2022/01/05 07:38:07;;;;;;;9.27;2.30;;;;;;;;;;6380328;28;20245;-83
2022/01/05 07:41:11;;;;;;;2.40;1.60;;;;;;;;;;6362490;28;20196;-83
2022/01/05 07:44:15;;;;;;;5.83;1.90;;;;;;;;;;6368109;28;20194;-83
2022/01/05 07:47:21;;;;;;;1.90;1.50;;;;;;;;;;6366382;28;20186;-83
2022/01/05 07:50:28;;;;;;;2.53;1.60;;;;;;;;;;6367242;28;20192;-83
2022/01/05 07:53:32;;;;;;;8.50;1.60;;;;;;;;;;6367855;28;20260;-85
2022/01/05 07:56:37;;;;;;;5.27;2.00;;;;;;;;;;6366548;28;20213;-83
2022/01/05 07:59:41;;;;;;;3.00;1.60;;;;;;;;;;6368227;28;20351;-83
2022/01/05 08:02:47;;;;;;;2.20;1.60;;;;;;;;;;6367148;28;20252;-83
2022/01/05 08:05:51;;;;;;;2.20;1.70;;;;;;;;;;6365996;28;20237;-85
2022/01/05 08:09:00;;;;;;;4.70;2.07;;;;;;;;;;6367481;28;20218;-83
2022/01/05 08:12:05;;;;;;;1.90;1.80;;;;;;;;;;6369493;28;20190;-83
2022/01/05 08:15:14;;;;;;;8.27;2.53;;;;;;;;;;6367115;28;20257;-83
2022/01/05 08:18:21;;;;;;;7.10;2.37;;;;;;;;;;6366992;28;20209;-82
2022/01/05 08:21:25;;;;;;;3.13;2.17;;;;;;;;;;6382007;27;20202;-82
2022/01/05 08:24:29;;;;;;;2.77;1.83;;;;;;;;;;6348478;28;20264;-83
2022/01/05 08:27:33;;;;;;;2.10;2.10;;;;;;;;;;6367184;28;20208;-83
2022/01/05 08:30:37;;;;;;;13.17;2.90;;;;;;;;;;6366497;28;20201;-83
2022/01/05 08:33:44;;;;;;;5.27;2.70;;;;;;;;;;6348389;28;20201;-83
2022/01/05 08:36:48;;;;;;;5.83;2.77;;;;;;;;;;6348372;28;20222;-83
2022/01/05 08:39:53;;;;;;;3.80;2.10;;;;;;;;;;6365962;28;20192;-84
2022/01/05 08:42:57;;;;;;;3.03;1.80;;;;;;;;;;6347695;28;20190;-83
2022/01/05 08:46:02;;;;;;;6.47;1.90;;;;;;;;;;6365599;28;20480;-84
2022/01/05 08:49:10;;;;;;;5.67;1.90;;;;;;;;;;6339636;28;20242;-84
2022/01/05 08:52:14;;;;;;;2.33;1.50;;;;;;;;;;6340676;28;20190;-84
2022/01/05 08:55:22;;;;;;;3.53;1.77;;;;;;;;;;6340964;28;20186;-79
2022/01/05 08:58:26;;;;;;;1.87;1.77;;;;;;;;;;6339024;28;20214;-79
2022/01/05 09:01:30;;;;;;;2.83;1.87;;;;;;;;;;6339843;28;20183;-82
2022/01/05 09:04:36;;;;;;;3.97;1.67;;;;;;;;;;6342286;28;20193;-82
2022/01/05 09:07:41;;;;;;;12.50;1.80;;;;;;;;;;6343410;28;20469;-83
2022/01/05 09:10:45;;;;;;;3.03;1.60;;;;;;;;;;6343087;28;20247;-82
2022/01/05 09:13:50;;;;;;;4.43;1.53;;;;;;;;;;6342909;28;20227;-82
2022/01/05 09:16:54;;;;;;;1.73;1.63;;;;;;;;;;6348170;28;20221;-82
2022/01/05 09:20:00;;;;;;;1.70;1.20;;;;;;;;;;6347114;28;20354;-84
2022/01/05 09:23:05;;;;;;;4.93;1.53;;;;;;;;;;6347316;28;20186;-81
2022/01/05 09:26:09;;;;;;;3.70;1.80;;;;;;;;;;6346822;28;20219;-83
2022/01/05 09:29:15;;;;;;;4.33;1.70;;;;;;;;;;6347141;28;20202;-86
2022/01/05 09:32:19;;;;;;;5.23;1.47;;;;;;;;;;6346040;28;20193;-86
2022/01/05 09:35:25;;;;;;;1.60;1.50;;;;;;;;;;6347896;28;20194;-85
2022/01/05 09:41:56;;;;;;;3.40;1.60;;;;;;;;;;6347044;28;20520;-84
2022/01/05 09:41:59;;;;;;;5.23;2.23;;;;;;;;;;6347038;28;20445;-81
2022/01/05 09:45:18;;;;;;;5.97;1.90;;;;;;;;;;6346570;28;20196;-84
2022/01/05 09:48:45;;;;;;;1.50;1.47;;;;;;;;;;6355124;28;20229;-83
2022/01/05 09:51:52;;;;;;;4.77;1.87;;;;;;;;;;6369622;28;20208;-81
2022/01/05 09:54:57;;;;;;;5.93;1.93;;;;;;;;;;6368639;28;20381;-84
2022/01/05 09:58:01;;;;;;;6.67;2.50;;;;;;;;;;6368659;28;20398;-81
2022/01/05 10:01:06;;;;;;;6.13;1.50;;;;;;;;;;6368724;28;20182;-79
2022/01/05 10:04:13;;;;;;;3.97;1.43;;;;;;;;;;6368261;28;20182;-80
2022/01/05 10:07:19;;;;;;;5.33;1.40;;;;;;;;;;6368340;28;20256;-81
2022/01/05 10:10:24;;;;;;;4.40;1.60;;;;;;;;;;6369859;28;20530;-81
2022/01/05 10:13:29;;;;;;;3.23;1.60;;;;;;;;;;6369229;28;20186;-82
2022/01/05 10:16:33;;;;;;;1.30;1.30;;;;;;;;;;6369402;28;20263;-80
2022/01/05 10:19:38;;;;;;;1.57;1.50;;;;;;;;;;6369159;28;20192;-77
2022/01/05 10:22:45;;;;;;;2.73;1.33;;;;;;;;;;6368375;28;20183;-82
2022/01/05 10:25:49;;;;;;;4.03;1.60;;;;;;;;;;6368210;28;20186;-84
2022/01/05 10:28:55;;;;;;;2.97;1.63;;;;;;;;;;6386691;27;20211;-84
2022/01/05 10:32:01;;;;;;;1.90;1.50;;;;;;;;;;6370945;28;20200;-83
2022/01/05 10:35:08;;;;;;;4.43;1.70;;;;;;;;;;6371792;28;20245;-85
2022/01/05 10:38:17;;;;;;;3.27;1.60;;;;;;;;;;6370483;28;20257;-83
2022/01/05 10:41:22;;;;;;;1.50;1.50;;;;;;;;;;6370344;28;20200;-84
2022/01/05 10:44:26;;;;;;;2.90;1.47;;;;;;;;;;6352722;28;20201;-81
2022/01/05 10:47:30;;;;;;;6.70;1.47;;;;;;;;;;6367067;28;20556;-79
2022/01/05 10:50:36;;;;;;;2.47;1.50;;;;;;;;;;6369022;28;20185;-81
2022/01/05 10:53:42;;;;;;;1.30;1.30;;;;;;;;;;6369915;28;20199;-82
2022/01/05 10:56:47;;;;;;;1.90;1.60;;;;;;;;;;6365486;28;20236;-77
2022/01/05 10:59:53;;;;;;;1.73;1.63;;;;;;;;;;6369975;28;20229;-79
2022/01/05 11:02:57;;;;;;;2.27;1.70;;;;;;;;;;6368162;28;20192;-80
2022/01/05 11:06:06;;;;;;;3.30;1.93;;;;;;;;;;6367545;28;20286;-79
2022/01/05 11:09:13;;;;;;;4.63;1.80;;;;;;;;;;6367983;28;20361;-79
2022/01/05 11:12:17;;;;;;;1.70;1.70;;;;;;;;;;6364312;28;20238;-79
2022/01/05 11:15:27;;;;;;;3.07;1.80;;;;;;;;;;6368953;28;20234;-80
2022/01/05 11:18:32;;;;;;;2.00;1.83;;;;;;;;;;6368309;28;20213;-83
2022/01/05 11:21:38;;;;;;;1.90;1.70;;;;;;;;;;6367052;28;20190;-81
2022/01/05 11:24:45;;;;;;;1.90;1.47;;;;;;;;;;6366567;28;20262;-80
2022/01/05 11:27:50;;;;;;;1.80;1.80;;;;;;;;;;6368810;28;20218;-83
2022/01/05 11:30:56;;;;;;;2.13;1.90;;;;;;;;;;6369506;28;20205;-83
2022/01/05 11:34:00;;;;;;;3.10;2.00;;;;;;;;;;6369669;28;20185;-80
2022/01/05 11:37:07;;;;;;;1.90;1.80;;;;;;;;;;6366121;28;20373;-82
2022/01/05 11:40:14;;;;;;;2.10;1.97;;;;;;;;;;6368110;28;20258;-81
2022/01/05 11:43:23;;;;;;;2.33;2.13;;;;;;;;;;6369348;28;20504;-81
2022/01/05 11:46:30;;;;;;;2.10;2.10;;;;;;;;;;6369921;28;20207;-81
2022/01/05 11:49:34;;;;;;;2.43;1.93;;;;;;;;;;6368961;28;20241;-81
2022/01/05 11:52:56;;;;;;;2.90;2.20;;;;;;;;;;6369018;28;20189;-81
2022/01/05 11:56:11;;;;;;;1.90;1.87;;;;;;;;;;6369372;28;20186;-83
2022/01/05 11:59:33;;;;;;;1.97;1.83;;;;;;;;;;6370199;28;20216;-81
2022/01/05 12:02:40;;;;;;;3.17;1.90;;;;;;;;;;6370131;28;20223;-82
2022/01/05 12:06:11;;;;;;;1.90;1.80;;;;;;;;;;6367957;28;20285;-81
2022/01/05 12:09:20;;;;;;;2.23;2.10;;;;;;;;;;6345588;28;20202;-81
2022/01/05 12:12:31;;;;;;;3.07;1.83;;;;;;;;;;6364578;28;20298;-80
2022/01/05 12:15:57;;;;;;;1.70;1.67;;;;;;;;;;6367301;28;20186;-80
2022/01/05 12:19:06;;;;;;;1.83;1.77;;;;;;;;;;6365402;28;20230;-81
2022/01/05 12:22:17;;;;;;;4.30;2.00;;;;;;;;;;6365689;28;20497;-82
2022/01/05 12:25:22;;;;;;;2.13;2.00;;;;;;;;;;6364620;28;20302;-82
2022/01/05 12:28:32;;;;;;;4.23;1.90;;;;;;;;;;6366486;28;20193;-82
2022/01/05 12:32:09;;;;;;;2.00;1.93;;;;;;;;;;6364703;28;20456;-82
2022/01/05 12:35:18;;;;;;;4.23;2.20;;;;;;;;;;6365243;28;20241;-81
2022/01/05 12:38:48;;;;;;;3.40;2.07;;;;;;;;;;6364924;28;20277;-82
2022/01/05 12:41:53;;;;;;;2.03;1.93;;;;;;;;;;6363890;28;20208;-80
2022/01/05 12:44:58;;;;;;;2.47;2.37;;;;;;;;;;6364940;28;20259;-83
2022/01/05 12:48:02;;;;;;;3.93;2.03;;;;;;;;;;6364126;28;20235;-78
2022/01/05 12:51:42;;;;;;;2.00;2.00;;;;;;;;;;6365079;28;20217;-80
2022/01/05 12:54:52;;;;;;;2.43;2.17;;;;;;;;;;6362643;28;20205;-81
2022/01/05 12:57:56;;;;;;;2.20;2.00;;;;;;;;;;6363001;28;20243;-81
2022/01/05 13:01:05;;;;;;;3.23;2.10;;;;;;;;;;6364159;28;20235;-79
2022/01/05 13:04:11;;;;;;;2.73;2.20;;;;;;;;;;6363539;28;20233;-80
2022/01/05 13:07:16;;;;;;;3.50;2.10;;;;;;;;;;6361896;28;20232;-78
2022/01/05 13:10:24;;;;;;;2.00;1.90;;;;;;;;;;6364325;28;20243;-81
2022/01/05 13:13:29;;;;;;;3.70;2.30;;;;;;;;;;6365319;28;20192;-83
2022/01/05 13:16:35;;;;;;;2.27;1.87;;;;;;;;;;6364287;28;20207;-84
2022/01/05 13:19:46;;;;;;;2.10;2.00;;;;;;;;;;6365617;28;20220;-84
2022/01/05 13:22:52;;;;;;;2.63;2.53;;;;;;;;;;6365658;28;20457;-80
2022/01/05 13:25:56;;;;;;;2.20;2.00;;;;;;;;;;6365423;28;20365;-81
2022/01/05 13:29:20;;;;;;;2.57;2.47;;;;;;;;;;6363566;28;20235;-79
2022/01/05 13:32:27;;;;;;;2.20;2.10;;;;;;;;;;6365204;28;20186;-82
2022/01/05 13:35:37;;;;;;;2.23;2.13;;;;;;;;;;6362580;28;20248;-83
2022/01/05 13:38:42;;;;;;;3.47;2.33;;;;;;;;;;6365005;28;20187;-83
2022/01/05 13:41:55;;;;;;;2.17;2.07;;;;;;;;;;6362953;28;20233;-82
2022/01/05 13:44:59;;;;;;;1.93;1.93;;;;;;;;;;6365497;28;20185;-82
2022/01/05 13:48:06;;;;;;;1.87;1.80;;;;;;;;;;6363359;28;20299;-83
2022/01/05 13:51:11;;;;;;;1.80;1.80;;;;;;;;;;6360529;28;20256;-82
2022/01/05 13:54:16;;;;;;;2.13;2.13;;;;;;;;;;6365467;28;20184;-83
2022/01/05 13:57:27;;;;;;;2.20;1.90;;;;;;;;;;6365724;28;20185;-83
2022/01/05 14:00:31;;;;;;;2.00;2.00;;;;;;;;;;6365568;28;20213;-83
2022/01/05 14:03:39;;;;;;;1.63;1.63;;;;;;;;;;6368330;28;20184;-83
2022/01/05 14:06:44;;;;;;;2.57;2.00;;;;;;;;;;6368757;28;20186;-82
2022/01/05 14:10:06;;;;;;;2.50;2.30;;;;;;;;;;6368784;28;20238;-80
2022/01/05 14:13:12;;;;;;;1.80;1.80;;;;;;;;;;6370733;28;20192;-83
2022/01/05 14:16:30;;;;;;;1.83;1.83;;;;;;;;;;6371209;28;20185;-79
2022/01/05 14:19:36;;;;;;;1.80;1.80;;;;;;;;;;6369835;28;20212;-79
2022/01/05 14:22:41;;;;;;;1.60;1.60;;;;;;;;;;6369773;28;20185;-79
2022/01/05 14:25:48;;;;;;;2.77;1.80;;;;;;;;;;6370390;28;20192;-80
2022/01/05 14:28:55;;;;;;;1.73;1.73;;;;;;;;;;6368940;28;20548;-81
2022/01/05 14:32:17;;;;;;;2.40;1.63;;;;;;;;;;6368669;28;20192;-81
2022/01/05 14:35:22;;;;;;;2.40;1.80;;;;;;;;;;6369364;28;20216;-82
2022/01/05 14:38:27;;;;;;;1.30;1.30;;;;;;;;;;6369123;28;20195;-81
2022/01/05 14:41:40;;;;;;;1.43;1.43;;;;;;;;;;6368154;28;20580;-81
2022/01/05 14:44:48;;;;;;;1.10;1.10;;;;;;;;;;6368457;28;20216;-81
2022/01/05 14:48:14;;;;;;;1.60;1.50;;;;;;;;;;6366763;28;20242;-83
2022/01/05 14:51:20;;;;;;;1.50;1.50;;;;;;;;;;6367211;28;20265;-81
2022/01/05 14:54:26;;;;;;;1.40;1.40;;;;;;;;;;6367866;28;20185;-81
2022/01/05 14:57:31;;;;;;;1.20;1.20;;;;;;;;;;6368140;28;20243;-87
2022/01/05 15:00:35;;;;;;;1.20;1.20;;;;;;;;;;6369588;28;20215;-81
2022/01/05 15:03:40;;;;;;;1.73;1.50;;;;;;;;;;6368626;28;20252;-80
2022/01/05 15:06:45;;;;;;;2.50;1.70;;;;;;;;;;6368172;28;20190;-83
2022/01/05 15:09:49;;;;;;;1.90;1.90;;;;;;;;;;6366827;28;20356;-81
2022/01/05 15:12:54;;;;;;;1.93;1.93;;;;;;;;;;6366807;28;20301;-81
2022/01/05 15:15:58;;;;;;;1.77;1.77;;;;;;;;;;6364420;28;20245;-82
2022/01/05 15:19:03;;;;;;;2.33;2.00;;;;;;;;;;6367550;28;20302;-81
2022/01/05 15:22:12;;;;;;;2.20;2.10;;;;;;;;;;6348468;28;20253;-79
2022/01/05 15:25:16;;;;;;;2.10;2.00;;;;;;;;;;6368052;28;20230;-81
2022/01/05 15:28:21;;;;;;;1.93;1.93;;;;;;;;;;6368832;28;20493;-82
2022/01/05 15:31:26;;;;;;;2.13;2.03;;;;;;;;;;6368668;28;20254;-83
2022/01/05 15:34:30;;;;;;;3.83;1.90;;;;;;;;;;6369991;28;20192;-82
2022/01/05 15:37:36;;;;;;;1.90;1.90;;;;;;;;;;6368720;28;20288;-80
2022/01/05 15:40:40;;;;;;;2.20;2.10;;;;;;;;;;6366855;28;20236;-82
2022/01/05 15:43:44;;;;;;;2.13;2.03;;;;;;;;;;6369077;28;20185;-82
2022/01/05 15:46:51;;;;;;;2.30;2.10;;;;;;;;;;6367204;28;20232;-81
2022/01/05 15:49:55;;;;;;;2.33;2.23;;;;;;;;;;6366181;28;20230;-82
2022/01/05 15:53:01;;;;;;;4.20;1.97;;;;;;;;;;6366915;28;20374;-82
2022/01/05 15:56:11;;;;;;;2.10;2.00;;;;;;;;;;6366972;28;20228;-81
2022/01/05 16:02:39;;;;;;;1.93;1.93;;;;;;;;;;6367066;28;20276;-82
2022/01/05 16:05:44;;;;;;;2.17;1.97;;;;;;;;;;6366067;28;20236;-82
2022/01/05 16:08:49;;;;;;;1.70;1.70;;;;;;;;;;6364875;28;20380;-81
2022/01/05 16:11:54;;;;;;;1.83;1.83;;;;;;;;;;6364749;28;20189;-81
2022/01/05 16:14:59;;;;;;;1.87;1.77;;;;;;;;;;6364903;28;20244;-82
2022/01/05 16:18:04;;;;;;;1.73;1.73;;;;;;;;;;6366079;28;20184;-82
2022/01/05 16:21:13;;;;;;;2.20;2.20;;;;;;;;;;6364802;28;20505;-82
2022/01/05 16:24:22;;;;;;;1.87;1.73;;;;;;;;;;6367322;28;20272;-82
2022/01/05 16:27:27;;;;;;;2.30;2.20;;;;;;;;;;6365972;28;20380;-82
2022/01/05 16:30:32;;;;;;;1.90;1.90;;;;;;;;;;6369195;28;20204;-82
2022/01/05 16:33:37;;;;;;;5.73;1.67;;;;;;;;;;6368610;28;20404;-81
2022/01/05 16:36:43;;;;;;;1.57;1.57;;;;;;;;;;6369169;28;20192;-82
2022/01/05 16:39:49;;;;;;;2.83;1.57;;;;;;;;;;6352069;28;20257;-81
2022/01/05 16:42:53;;;;;;;2.03;2.03;;;;;;;;;;6369198;28;20402;-82
2022/01/05 16:45:57;;;;;;;1.90;1.80;;;;;;;;;;6368853;28;20539;-82
2022/01/05 16:49:01;;;;;;;1.73;1.73;;;;;;;;;;6369369;28;20248;-83
2022/01/05 16:52:07;;;;;;;1.27;1.27;;;;;;;;;;6372538;28;20189;-79
2022/01/05 16:55:16;;;;;;;1.40;1.40;;;;;;;;;;6374125;28;20216;-80
2022/01/05 17:01:43;;;;;;;1.70;1.60;;;;;;;;;;6379370;28;20216;-80
2022/01/05 17:04:51;;;;;;;1.30;1.30;;;;;;;;;;6378240;28;20191;-82
2022/01/05 17:07:56;;;;;;;1.40;1.40;;;;;;;;;;6347859;28;20466;-78
2022/01/05 17:11:03;;;;;;;1.70;1.70;;;;;;;;;;6366851;28;20310;-81
2022/01/05 17:14:09;;;;;;;1.70;1.70;;;;;;;;;;6367359;28;20254;-78
2022/01/05 17:17:15;;;;;;;2.93;1.50;;;;;;;;;;6365481;28;20186;-84
2022/01/05 17:20:20;;;;;;;1.43;1.43;;;;;;;;;;6382179;28;20415;-86
2022/01/05 17:23:24;;;;;;;1.47;1.47;;;;;;;;;;6366552;28;20235;-84
2022/01/05 17:26:31;;;;;;;1.33;1.33;;;;;;;;;;6366233;28;20185;-85
2022/01/05 17:29:35;;;;;;;1.40;1.40;;;;;;;;;;6356363;28;20208;-85
2022/01/05 17:32:42;;;;;;;1.40;1.40;;;;;;;;;;6337422;28;20211;-79
2022/01/05 17:35:59;;;;;;;1.60;1.50;;;;;;;;;;6341081;28;20490;-80
2022/01/05 17:39:05;;;;;;;1.63;1.63;;;;;;;;;;6347228;28;20190;-79
2022/01/05 17:42:11;;;;;;;1.70;1.70;;;;;;;;;;6347703;28;20211;-82
2022/01/05 17:45:16;;;;;;;1.30;1.30;;;;;;;;;;6346564;28;20217;-79
2022/01/05 17:48:22;;;;;;;1.50;1.40;;;;;;;;;;6346288;28;20278;-78
2022/01/05 17:51:28;;;;;;;1.33;1.33;;;;;;;;;;6347422;28;20187;-81
2022/01/05 17:54:32;;;;;;;1.37;1.37;;;;;;;;;;6347576;28;20248;-80
2022/01/05 17:57:37;;;;;;;1.20;1.20;;;;;;;;;;6347347;28;20223;-79
2022/01/05 18:00:42;;;;;;;1.50;1.50;;;;;;;;;;6348932;28;20233;-82
2022/01/05 18:03:49;;;;;;;1.47;1.47;;;;;;;;;;6348201;28;20280;-83
2022/01/05 18:06:53;;;;;;;1.50;1.50;;;;;;;;;;6374342;28;20191;-83
2022/01/05 18:09:58;;;;;;;1.20;1.20;;;;;;;;;;6373696;28;20262;-87
2022/01/05 18:13:03;;;;;;;1.30;1.30;;;;;;;;;;6388530;27;20209;-87
2022/01/05 18:16:13;;;;;;;1.20;1.20;;;;;;;;;;6374065;28;20187;-81
2022/01/05 18:19:18;;;;;;;1.07;1.07;;;;;;;;;;6373102;28;20184;-81
2022/01/05 18:22:23;;;;;;;1.50;1.50;;;;;;;;;;6377720;28;20214;-81
2022/01/05 18:25:28;;;;;;;1.33;1.33;;;;;;;;;;6363498;28;20304;-82
2022/01/05 18:28:33;;;;;;;1.23;1.23;;;;;;;;;;6381861;28;20248;-80
2022/01/05 18:31:39;;;;;;;1.83;1.83;;;;;;;;;;6379527;28;20203;-77
2022/01/05 18:34:43;;;;;;;4.63;1.67;;;;;;;;;;6379786;28;20253;-82
2022/01/05 18:37:49;;;;;;;1.20;1.20;;;;;;;;;;6397912;27;20209;-83
2022/01/05 18:40:53;;;;;;;1.80;1.70;;;;;;;;;;6381515;28;20185;-83
2022/01/05 18:43:59;;;;;;;1.67;1.67;;;;;;;;;;6380802;28;20263;-82